Time;durP1;ratioP1;P1;durP2;ratioP2;P2;SDS_P1;SDS_P2;PMS_P1;PMS_P2;Temp;Humidity;BMP_temperature;BMP_pressure;BME280_temperature;BME280_humidity;BME280_pressure;Samples;Min_cycle;Max_cycle;Signal;HPM_P1;HPM_P2
2022/09/30 00:02:22;;;;;;;5.72;4.82;;;;;;;7.65;100.00;100716.50;5278356;28;20041;-70
2022/09/30 00:04:54;;;;;;;6.72;4.80;;;;;;;7.60;100.00;100716.00;5277291;28;20024;-69
2022/09/30 00:07:25;;;;;;;5.75;4.30;;;;;;;7.58;100.00;100715.31;5276764;28;20028;-69
2022/09/30 00:09:56;;;;;;;9.00;5.35;;;;;;;7.57;100.00;100716.22;5274272;28;20012;-70
2022/09/30 00:12:27;;;;;;;5.60;4.95;;;;;;;7.52;100.00;100721.78;5279237;28;20078;-69
2022/09/30 00:14:59;;;;;;;8.27;5.03;;;;;;;7.50;100.00;100728.91;5277581;28;20031;-70
2022/09/30 00:17:30;;;;;;;6.00;4.78;;;;;;;7.50;100.00;100723.69;5277878;28;20029;-69
2022/09/30 00:20:02;;;;;;;4.60;4.20;;;;;;;7.47;100.00;100723.09;5276828;28;20055;-69
2022/09/30 00:22:33;;;;;;;6.38;4.63;;;;;;;7.42;100.00;100727.78;5277658;28;20064;-70
2022/09/30 00:25:05;;;;;;;6.50;4.75;;;;;;;7.40;100.00;100727.06;5276182;28;20051;-70
2022/09/30 00:27:36;;;;;;;5.88;4.82;;;;;;;7.44;100.00;100729.34;5275836;28;20036;-70
2022/09/30 00:30:08;;;;;;;6.28;4.88;;;;;;;7.41;100.00;100724.34;5278339;28;20028;-70
2022/09/30 00:32:39;;;;;;;6.10;5.50;;;;;;;7.36;100.00;100721.25;5278533;28;20116;-69
2022/09/30 00:35:10;;;;;;;6.80;5.07;;;;;;;7.33;100.00;100726.69;5276310;28;20103;-70
2022/09/30 00:37:42;;;;;;;5.75;4.65;;;;;;;7.30;100.00;100727.72;5274173;28;20024;-69
2022/09/30 00:40:13;;;;;;;6.10;5.38;;;;;;;7.24;100.00;100727.38;5277261;28;20040;-70
2022/09/30 00:42:45;;;;;;;5.78;4.63;;;;;;;7.24;100.00;100723.00;5274578;28;20541;-70
2022/09/30 00:45:17;;;;;;;7.57;5.40;;;;;;;7.27;100.00;100725.38;5277362;28;20070;-69
2022/09/30 00:48:05;;;;;;;6.22;5.28;;;;;;;7.38;100.00;100724.56;5276450;28;20132;-69
2022/09/30 00:50:47;;;;;;;7.05;5.45;;;;;;;7.25;100.00;100713.41;5276631;28;20051;-70
2022/09/30 00:53:29;;;;;;;7.07;5.95;;;;;;;7.27;100.00;100717.56;5277838;28;20144;-70
2022/09/30 00:56:05;;;;;;;7.18;5.55;;;;;;;7.21;100.00;100720.59;5277752;28;20047;-69
2022/09/30 00:58:43;;;;;;;6.70;5.78;;;;;;;7.24;100.00;100723.00;5274313;28;20066;-69
2022/09/30 01:01:14;;;;;;;7.50;5.78;;;;;;;7.21;100.00;100728.41;5277498;28;20492;-70
2022/09/30 01:04:00;;;;;;;6.95;6.28;;;;;;;7.38;100.00;100728.94;5277290;28;20033;-70
2022/09/30 01:06:32;;;;;;;9.43;5.97;;;;;;;7.19;100.00;100725.06;5275714;28;20028;-70
2022/09/30 01:09:03;;;;;;;6.53;5.82;;;;;;;7.14;100.00;100726.38;5275136;28;20039;-70
2022/09/30 01:11:35;;;;;;;6.10;5.50;;;;;;;7.14;100.00;100724.59;5277913;28;20060;-70
2022/09/30 01:14:20;;;;;;;6.53;5.90;;;;;;;7.35;100.00;100729.16;5277231;28;20547;-70
2022/09/30 01:17:06;;;;;;;6.68;5.78;;;;;;;7.24;100.00;100719.56;5274072;28;20059;-69
2022/09/30 01:19:57;;;;;;;6.63;5.93;;;;;;;7.20;100.00;100723.31;5277452;28;20032;-70
2022/09/30 01:23:14;;;;;;;6.95;5.90;;;;;;;7.32;100.00;100725.03;5276931;28;20024;-69
2022/09/30 01:25:51;;;;;;;6.82;5.97;;;;;;;7.14;100.00;100724.59;5276910;28;20033;-70
2022/09/30 01:28:28;;;;;;;7.63;6.20;;;;;;;7.01;100.00;100732.47;5276783;28;20908;-69
2022/09/30 01:31:27;;;;;;;6.55;5.88;;;;;;;7.21;100.00;100731.03;5274906;28;20433;-70
2022/09/30 01:34:18;;;;;;;7.28;6.35;;;;;;;7.19;100.00;100722.47;5276848;28;20028;-69
2022/09/30 01:37:21;;;;;;;6.82;6.13;;;;;;;7.22;100.00;100724.03;5257489;28;20027;-70
2022/09/30 01:40:22;;;;;;;7.75;6.20;;;;;;;7.18;100.00;100722.59;5276767;28;20052;-69
2022/09/30 01:43:07;;;;;;;7.13;6.43;;;;;;;7.05;100.00;100733.06;5276384;28;20036;-70
2022/09/30 01:45:53;;;;;;;7.40;6.50;;;;;;;7.06;100.00;100730.34;5275455;28;20025;-69
2022/09/30 01:48:50;;;;;;;7.70;6.68;;;;;;;7.17;100.00;100734.78;5273800;28;20527;-69
2022/09/30 01:51:33;;;;;;;8.73;6.28;;;;;;;7.00;100.00;100732.56;5247005;28;20136;-70
2022/09/30 01:54:25;;;;;;;7.90;6.50;;;;;;;7.00;100.00;100728.16;5258601;28;20029;-69
2022/09/30 01:57:07;;;;;;;6.90;6.20;;;;;;;6.99;100.00;100723.91;5274787;28;20024;-69
2022/09/30 01:59:52;;;;;;;8.57;6.78;;;;;;;6.95;100.00;100729.47;5276678;28;20032;-70
2022/09/30 02:02:30;;;;;;;9.88;6.85;;;;;;;6.95;100.00;100738.09;5276776;28;20040;-69
2022/09/30 02:05:10;;;;;;;8.57;6.68;;;;;;;6.92;100.00;100727.91;5274069;28;20063;-69
2022/09/30 02:07:49;;;;;;;8.25;7.45;;;;;;;6.93;100.00;100734.78;5272766;28;20052;-69
2022/09/30 02:10:33;;;;;;;7.20;6.50;;;;;;;6.97;100.00;100730.16;5276501;28;20028;-70
2022/09/30 02:13:24;;;;;;;7.78;6.97;;;;;;;7.04;100.00;100732.22;5272983;28;20054;-70
2022/09/30 02:16:01;;;;;;;8.38;6.82;;;;;;;6.90;100.00;100732.41;5275906;28;20029;-69
2022/09/30 02:18:41;;;;;;;8.82;7.60;;;;;;;6.90;100.00;100736.78;5276676;28;20028;-70
2022/09/30 02:21:19;;;;;;;8.73;7.15;;;;;;;6.79;100.00;100734.94;5273518;28;20131;-69
2022/09/30 02:23:56;;;;;;;10.02;8.23;;;;;;;6.69;100.00;100733.91;5260196;28;20028;-70
2022/09/30 02:26:30;;;;;;;8.70;7.80;;;;;;;6.69;100.00;100736.50;5276922;28;20028;-69
2022/09/30 02:29:08;;;;;;;9.63;8.63;;;;;;;6.72;100.00;100736.31;5275521;28;20028;-70
2022/09/30 02:31:42;;;;;;;8.75;7.30;;;;;;;6.60;100.00;100747.56;5276247;28;20461;-69
2022/09/30 02:34:17;;;;;;;8.25;7.45;;;;;;;6.56;100.00;100741.75;5276760;28;20021;-69
2022/09/30 02:36:57;;;;;;;8.13;7.25;;;;;;;6.55;100.00;100738.31;5275139;28;20033;-69
2022/09/30 02:39:39;;;;;;;9.38;8.48;;;;;;;6.58;100.00;100737.25;5270790;28;20078;-70
2022/09/30 02:42:19;;;;;;;8.98;8.05;;;;;;;6.60;100.00;100731.97;5276199;28;20096;-70
2022/09/30 02:44:53;;;;;;;9.52;8.40;;;;;;;6.52;100.00;100732.50;5275639;28;20037;-69
2022/09/30 02:47:35;;;;;;;10.98;8.52;;;;;;;6.56;100.00;100736.53;5275113;28;20029;-69
2022/09/30 02:50:23;;;;;;;10.13;8.07;;;;;;;6.69;100.00;100741.72;5275519;28;20094;-70
2022/09/30 02:53:03;;;;;;;10.38;9.27;;;;;;;6.49;100.00;100727.50;5276958;28;20111;-69
2022/09/30 02:55:59;;;;;;;9.90;8.10;;;;;;;6.63;100.00;100742.13;5272990;28;20040;-69
2022/09/30 02:58:38;;;;;;;11.07;8.70;;;;;;;6.49;100.00;100732.69;5275749;28;20040;-69
2022/09/30 03:01:12;;;;;;;9.07;8.18;;;;;;;6.52;100.00;100728.13;5275828;28;20493;-70
2022/09/30 03:03:48;;;;;;;10.48;7.95;;;;;;;6.52;100.00;100737.69;5274242;28;20039;-70
2022/09/30 03:06:20;;;;;;;10.25;8.80;;;;;;;6.41;100.00;100728.03;5272530;28;20067;-70
2022/09/30 03:08:52;;;;;;;10.35;9.35;;;;;;;6.47;100.00;100737.16;5273829;28;20060;-69
2022/09/30 03:11:26;;;;;;;10.40;9.40;;;;;;;6.51;100.00;100736.00;5275036;28;20363;-70
2022/09/30 03:14:15;;;;;;;9.90;8.43;;;;;;;6.47;100.00;100743.19;5275298;28;20259;-70
2022/09/30 03:17:18;;;;;;;9.80;8.80;;;;;;;6.64;100.00;100743.81;5273952;28;20420;-69
2022/09/30 03:19:58;;;;;;;11.10;8.75;;;;;;;6.61;100.00;100749.22;5274729;28;20492;-70
2022/09/30 03:22:51;;;;;;;9.93;8.93;;;;;;;6.63;100.00;100745.59;5273356;28;20115;-69
2022/09/30 03:25:45;;;;;;;9.98;8.95;;;;;;;6.74;100.00;100744.81;5273529;28;20032;-69
2022/09/30 03:28:45;;;;;;;10.27;9.20;;;;;;;6.56;100.00;100746.97;5274951;28;20397;-70
2022/09/30 03:31:33;;;;;;;10.65;9.57;;;;;;;6.62;100.00;100753.50;5274818;28;20029;-68
2022/09/30 03:34:20;;;;;;;11.73;9.45;;;;;;;6.56;100.00;100746.97;5273987;28;20024;-69
2022/09/30 03:37:05;;;;;;;11.73;9.52;;;;;;;6.49;100.00;100751.75;5274523;28;20229;-69
2022/09/30 03:39:36;;;;;;;11.02;9.57;;;;;;;6.43;100.00;100746.13;5272997;28;20052;-69
2022/09/30 03:42:17;;;;;;;10.43;9.43;;;;;;;6.40;100.00;100747.16;5269168;28;20422;-69
2022/09/30 03:45:01;;;;;;;12.80;10.10;;;;;;;6.47;100.00;100747.56;5274715;28;20037;-69
2022/09/30 03:47:37;;;;;;;11.35;10.25;;;;;;;6.39;100.00;100752.47;5275426;28;20115;-69
2022/09/30 03:50:13;;;;;;;11.27;10.07;;;;;;;6.33;100.00;100757.19;5274448;28;20067;-69
2022/09/30 03:52:46;;;;;;;15.60;10.15;;;;;;;6.31;100.00;100766.00;5277255;28;20032;-68
2022/09/30 03:55:18;;;;;;;12.00;10.80;;;;;;;6.31;100.00;100772.03;5277515;28;20036;-69
2022/09/30 03:57:51;;;;;;;12.47;11.27;;;;;;;6.30;100.00;100772.16;5279472;28;20028;-69
2022/09/30 04:00:22;;;;;;;12.88;11.23;;;;;;;6.32;100.00;100775.47;5275623;28;20028;-69
2022/09/30 04:02:53;;;;;;;13.43;11.70;;;;;;;6.29;100.00;100771.34;5279244;28;20116;-69
2022/09/30 04:05:24;;;;;;;13.52;12.07;;;;;;;6.28;100.00;100776.63;5279819;28;20054;-70
2022/09/30 04:07:56;;;;;;;14.48;13.02;;;;;;;6.27;100.00;100775.78;5276833;28;20024;-69
2022/09/30 04:10:27;;;;;;;13.35;11.95;;;;;;;6.25;100.00;100782.88;5255629;28;20029;-70
2022/09/30 04:12:58;;;;;;;13.20;11.90;;;;;;;6.28;100.00;100794.84;5279412;28;20385;-69
2022/09/30 04:15:30;;;;;;;13.18;11.80;;;;;;;6.24;100.00;100794.22;5278504;28;20375;-69
2022/09/30 04:18:03;;;;;;;14.30;12.43;;;;;;;6.22;100.00;100790.06;5278349;28;20043;-69
2022/09/30 04:20:34;;;;;;;;;;;;;;;6.82;100.00;100805.03;5277387;28;20082;-69
2022/09/30 04:23:05;;;;;;;13.00;11.63;;;;;;;6.24;100.00;100806.38;5277088;28;19924;-68
2022/09/30 04:25:37;;;;;;;12.35;11.20;;;;;;;6.18;100.00;100817.22;5278409;28;20738;-69
2022/09/30 04:28:08;;;;;;;12.70;11.50;;;;;;;6.12;100.00;100830.63;5276992;28;20121;-70
2022/09/30 04:30:39;;;;;;;13.15;11.73;;;;;;;6.09;100.00;100834.25;5277291;28;20017;-69
2022/09/30 04:33:11;;;;;;;13.38;12.07;;;;;;;6.03;100.00;100824.28;5275233;28;20032;-68
2022/09/30 04:35:42;;;;;;;14.68;13.15;;;;;;;6.08;100.00;100827.41;5279487;28;20533;-70
2022/09/30 04:38:14;;;;;;;15.07;13.52;;;;;;;6.04;100.00;100818.13;5277361;28;20154;-70
2022/09/30 04:40:45;;;;;;;15.25;13.48;;;;;;;6.07;100.00;100821.38;5275759;28;20020;-69
2022/09/30 04:43:18;;;;;;;16.27;13.85;;;;;;;6.07;100.00;100825.72;5277701;28;20119;-70
2022/09/30 04:45:53;;;;;;;15.30;13.57;;;;;;;6.08;100.00;100820.41;5255334;28;20032;-69
2022/09/30 04:48:26;;;;;;;15.25;13.65;;;;;;;6.06;100.00;100830.09;5278905;28;20021;-70
2022/09/30 04:51:01;;;;;;;15.18;13.60;;;;;;;6.07;100.00;100829.16;5276246;28;20524;-69
2022/09/30 04:53:32;;;;;;;15.23;13.57;;;;;;;6.00;100.00;100834.88;5278099;28;20524;-69
2022/09/30 04:56:04;;;;;;;15.05;13.55;;;;;;;6.05;100.00;100830.19;5278341;28;20040;-70
2022/09/30 04:58:36;;;;;;;13.70;12.27;;;;;;;6.02;100.00;100833.00;5275379;28;20040;-69
2022/09/30 05:01:09;;;;;;;14.68;13.18;;;;;;;6.02;100.00;100838.19;5276898;28;20028;-70
2022/09/30 05:03:42;;;;;;;14.15;12.85;;;;;;;5.98;100.00;100844.53;5270533;28;20147;-69
2022/09/30 05:06:13;;;;;;;14.73;13.23;;;;;;;5.98;100.00;100836.72;5274934;28;20020;-70
2022/09/30 05:08:45;;;;;;;15.57;13.32;;;;;;;5.96;100.00;100846.41;5276221;28;20101;-69
2022/09/30 05:11:18;;;;;;;14.23;12.93;;;;;;;5.99;100.00;100843.63;5277614;28;20122;-70
2022/09/30 05:13:49;;;;;;;14.15;12.43;;;;;;;5.99;100.00;100847.03;5278033;28;20425;-68
2022/09/30 05:16:21;;;;;;;13.45;12.05;;;;;;;5.97;100.00;100859.31;5276605;28;20036;-70
2022/09/30 05:18:52;;;;;;;16.10;13.43;;;;;;;5.90;100.00;100842.41;5276036;28;20059;-70
2022/09/30 05:21:24;;;;;;;14.88;13.38;;;;;;;5.96;100.00;100857.66;5275997;28;20039;-70
2022/09/30 05:23:55;;;;;;;15.32;13.20;;;;;;;5.94;100.00;100854.28;5275942;28;20032;-69
2022/09/30 05:26:26;;;;;;;14.38;12.88;;;;;;;5.92;100.00;100860.53;5276746;28;20016;-70
2022/09/30 05:28:58;;;;;;;14.63;13.13;;;;;;;5.91;100.00;100853.63;5277356;28;20107;-69
2022/09/30 05:31:29;;;;;;;15.02;13.52;;;;;;;5.97;100.00;100851.50;5276450;28;20493;-69
2022/09/30 05:34:01;;;;;;;13.25;11.88;;;;;;;5.91;100.00;100846.69;5270784;28;20044;-69
2022/09/30 05:36:32;;;;;;;14.38;12.98;;;;;;;5.95;100.00;100858.59;5275249;28;20028;-69
2022/09/30 05:39:03;;;;;;;15.02;13.02;;;;;;;5.97;100.00;100863.66;5277212;28;20063;-69
2022/09/30 05:41:35;;;;;;;14.30;12.77;;;;;;;6.03;100.00;100871.09;5259009;28;20024;-69
2022/09/30 05:44:08;;;;;;;14.45;12.95;;;;;;;5.97;100.00;100879.28;5275608;28;20040;-69
2022/09/30 05:46:39;;;;;;;17.83;13.65;;;;;;;5.96;100.00;100886.25;5277444;28;20024;-69
2022/09/30 05:49:10;;;;;;;15.63;12.60;;;;;;;5.98;100.00;100891.34;5276164;28;20492;-69
2022/09/30 05:51:42;;;;;;;13.35;11.95;;;;;;;5.96;100.00;100890.63;5276198;28;20035;-70
2022/09/30 05:54:13;;;;;;;15.85;13.38;;;;;;;5.97;100.00;100893.09;5271289;28;20071;-70
2022/09/30 05:56:44;;;;;;;13.18;11.57;;;;;;;6.05;100.00;100893.44;5276120;28;20035;-70
2022/09/30 05:59:15;;;;;;;14.77;13.15;;;;;;;6.04;100.00;100896.97;5275551;28;20295;-70
2022/09/30 06:01:47;;;;;;;14.68;12.77;;;;;;;6.04;100.00;100898.75;5276636;28;20118;-70
2022/09/30 06:04:18;;;;;;;14.90;12.18;;;;;;;6.07;100.00;100901.16;5276662;28;20036;-70
2022/09/30 06:06:49;;;;;;;13.77;12.40;;;;;;;6.09;100.00;100913.09;5275713;28;20385;-70
2022/09/30 06:09:21;;;;;;;14.38;12.88;;;;;;;6.12;100.00;100913.84;5274835;28;20024;-69
2022/09/30 06:11:59;;;;;;;13.02;11.73;;;;;;;6.13;100.00;100911.16;5276664;28;20048;-70
2022/09/30 06:14:31;;;;;;;13.43;12.13;;;;;;;6.16;100.00;100910.13;5274911;28;20386;-69
2022/09/30 06:17:05;;;;;;;14.45;12.90;;;;;;;6.19;100.00;100921.16;5275206;28;20032;-70
2022/09/30 06:19:36;;;;;;;14.77;13.27;;;;;;;6.15;100.00;100908.47;5273110;28;20024;-70
2022/09/30 06:22:07;;;;;;;14.05;12.57;;;;;;;6.25;100.00;100922.50;5275851;28;20028;-69
2022/09/30 06:24:40;;;;;;;13.88;12.48;;;;;;;6.28;100.00;100923.16;5267835;28;20107;-69
2022/09/30 06:27:12;;;;;;;18.10;13.02;;;;;;;6.34;100.00;100924.53;5267451;28;20025;-70
2022/09/30 06:29:43;;;;;;;14.85;13.30;;;;;;;6.36;100.00;100938.25;5254651;28;20025;-70
2022/09/30 06:32:14;;;;;;;14.57;13.07;;;;;;;6.40;100.00;100926.72;5268544;28;20032;-70
2022/09/30 06:34:46;;;;;;;14.32;12.70;;;;;;;6.34;100.00;100920.16;5262289;28;20020;-70
2022/09/30 06:37:17;;;;;;;15.15;13.55;;;;;;;6.43;100.00;100931.72;5272590;28;20024;-69
2022/09/30 06:39:49;;;;;;;14.63;13.10;;;;;;;6.48;100.00;100929.66;5274305;28;20032;-69
2022/09/30 06:42:23;;;;;;;21.88;13.45;;;;;;;6.54;100.00;100921.44;5272913;28;20053;-70
2022/09/30 06:44:55;;;;;;;17.20;13.65;;;;;;;6.57;100.00;100915.19;5272312;28;20127;-70
2022/09/30 06:47:26;;;;;;;15.85;13.85;;;;;;;6.60;100.00;100914.16;5254746;28;20485;-69
2022/09/30 06:49:58;;;;;;;17.98;14.20;;;;;;;6.67;100.00;100918.03;5274764;28;20059;-69
2022/09/30 06:52:29;;;;;;;15.68;14.18;;;;;;;6.70;100.00;100923.84;5272900;28;20497;-70
2022/09/30 06:55:00;;;;;;;22.20;15.45;;;;;;;6.76;100.00;100920.00;5269554;28;20029;-69
2022/09/30 06:57:31;;;;;;;17.02;15.07;;;;;;;6.81;100.00;100912.69;5273624;28;20028;-69
2022/09/30 07:00:03;;;;;;;18.08;16.17;;;;;;;6.88;100.00;100923.53;5271686;28;20036;-69
2022/09/30 07:02:35;;;;;;;18.48;16.05;;;;;;;6.95;100.00;100924.78;5273192;28;20032;-69
2022/09/30 07:05:07;;;;;;;18.42;16.42;;;;;;;6.97;100.00;100915.94;5271147;28;20028;-70
2022/09/30 07:07:38;;;;;;;20.58;17.23;;;;;;;7.06;100.00;100920.50;5273456;28;20032;-69
2022/09/30 07:10:10;;;;;;;22.05;18.20;;;;;;;7.11;100.00;100921.97;5273543;28;20017;-69
2022/09/30 07:12:41;;;;;;;19.83;17.73;;;;;;;7.19;100.00;100927.47;5274204;28;20024;-69
2022/09/30 07:15:12;;;;;;;22.27;19.02;;;;;;;7.25;100.00;100925.28;5270029;28;20035;-69
2022/09/30 07:17:44;;;;;;;26.23;19.63;;;;;;;7.34;100.00;100912.56;5267714;28;20043;-69
2022/09/30 07:20:15;;;;;;;23.20;20.35;;;;;;;7.37;100.00;100907.13;5269248;28;20330;-70
2022/09/30 07:22:46;;;;;;;24.60;20.92;;;;;;;7.49;100.00;100919.28;5272372;28;20037;-68
2022/09/30 07:25:18;;;;;;;24.05;21.45;;;;;;;7.53;100.00;100918.97;5275388;28;20071;-69
2022/09/30 07:27:50;;;;;;;26.67;22.27;;;;;;;7.64;100.00;100917.38;5274996;28;20070;-69
2022/09/30 07:30:21;;;;;;;26.85;22.55;;;;;;;7.73;100.00;100919.34;5275548;28;20078;-69
2022/09/30 07:32:52;;;;;;;25.35;22.75;;;;;;;7.85;100.00;100939.31;5274815;28;20048;-69
2022/09/30 07:35:23;;;;;;;26.48;23.38;;;;;;;7.92;100.00;100935.31;5276309;28;20547;-69
2022/09/30 07:37:55;;;;;;;24.30;21.63;;;;;;;8.03;100.00;100935.38;5277224;28;20392;-68
2022/09/30 07:40:30;;;;;;;26.48;23.73;;;;;;;8.04;100.00;100933.59;5275851;28;20550;-69
2022/09/30 07:43:02;;;;;;;27.40;22.92;;;;;;;8.19;100.00;100935.09;5276714;28;20086;-69
2022/09/30 07:45:36;;;;;;;25.48;22.88;;;;;;;8.31;100.00;100946.41;5277388;28;20063;-70
2022/09/30 07:48:37;;;;;;;25.48;22.77;;;;;;;8.33;100.00;100946.28;5276359;28;20056;-69
2022/09/30 07:50:59;;;;;;;24.35;21.77;;;;;;;8.39;100.00;100931.03;5275841;28;20124;-69
2022/09/30 07:53:31;;;;;;;25.48;22.58;;;;;;;8.51;100.00;100924.91;5274315;28;20033;-69
2022/09/30 07:56:05;;;;;;;26.42;23.13;;;;;;;8.63;100.00;100928.38;5274423;28;20393;-69
2022/09/30 07:58:37;;;;;;;26.05;22.05;;;;;;;8.71;100.00;100925.16;5275500;28;20161;-69
2022/09/30 08:01:09;;;;;;;25.52;22.55;;;;;;;8.75;100.00;100926.59;5275540;28;20020;-69
2022/09/30 08:03:43;;;;;;;26.40;23.42;;;;;;;8.84;100.00;100928.53;5275461;28;20045;-69
2022/09/30 08:06:17;;;;;;;24.55;21.83;;;;;;;8.96;100.00;100918.91;5276977;28;20064;-69
2022/09/30 08:08:51;;;;;;;26.00;23.40;;;;;;;9.08;100.00;100922.38;5273492;28;20048;-68
2022/09/30 08:11:23;;;;;;;24.70;22.20;;;;;;;9.11;100.00;100920.34;5277122;28;20039;-69
2022/09/30 08:13:56;;;;;;;25.33;22.73;;;;;;;9.26;100.00;100920.94;5275641;28;20115;-69
2022/09/30 08:16:27;;;;;;;28.05;24.15;;;;;;;9.24;100.00;100928.06;5274412;28;20020;-69
2022/09/30 08:19:00;;;;;;;25.67;23.08;;;;;;;9.38;100.00;100930.44;5276932;28;20478;-69
2022/09/30 08:21:32;;;;;;;29.05;25.95;;;;;;;9.42;100.00;100925.78;5277285;28;20067;-69
2022/09/30 08:24:03;;;;;;;28.65;25.65;;;;;;;9.53;100.00;100928.41;5276207;28;20539;-69
2022/09/30 08:26:35;;;;;;;29.38;26.00;;;;;;;9.62;100.00;100932.06;5252569;28;20448;-69
2022/09/30 08:29:06;;;;;;;29.45;26.23;;;;;;;9.73;100.00;100926.81;5276069;28;20028;-69
2022/09/30 08:31:37;;;;;;;28.50;25.60;;;;;;;9.84;100.00;100933.81;5274072;28;20102;-69
2022/09/30 08:34:09;;;;;;;28.67;25.77;;;;;;;9.98;100.00;100930.91;5274996;28;20028;-69
2022/09/30 08:36:40;;;;;;;26.98;24.27;;;;;;;10.10;100.00;100929.91;5277031;28;20432;-69
2022/09/30 08:39:11;;;;;;;26.83;23.90;;;;;;;10.28;100.00;100924.16;5272029;28;20032;-69
2022/09/30 08:42:03;;;;;;;27.23;24.35;;;;;;;10.54;100.00;100922.84;5270968;28;20081;-69
2022/09/30 08:44:46;;;;;;;25.85;22.95;;;;;;;10.71;100.00;100931.91;5269529;28;20036;-69
2022/09/30 08:47:42;;;;;;;22.95;20.70;;;;;;;10.98;100.00;100927.91;5277106;28;20029;-69
2022/09/30 08:50:22;;;;;;;23.52;21.23;;;;;;;11.07;100.00;100929.75;5289404;22;20413;-78
2022/09/30 08:53:00;;;;;;;23.08;20.77;;;;;;;11.18;100.00;100937.53;5262676;28;20054;-78
2022/09/30 08:55:40;;;;;;;21.50;19.40;;;;;;;11.36;100.00;100942.97;5274377;28;20469;-78
2022/09/30 08:58:26;;;;;;;20.60;18.55;;;;;;;11.51;100.00;100919.81;5267534;28;20082;-78
2022/09/30 09:01:31;;;;;;;22.05;19.00;;;;;;;11.77;100.00;100938.53;5267389;28;20036;-78
2022/09/30 09:04:05;;;;;;;21.40;17.58;;;;;;;11.84;100.00;100932.63;5275995;28;20099;-78
2022/09/30 09:07:00;;;;;;;19.58;17.50;;;;;;;12.14;100.00;100941.38;5269537;28;20192;-78
2022/09/30 09:10:02;;;;;;;18.20;16.40;;;;;;;12.27;100.00;100918.25;5275800;28;20477;-78
2022/09/30 09:12:52;;;;;;;17.85;16.17;;;;;;;12.46;100.00;100916.59;5277080;28;20074;-79
2022/09/30 09:15:32;;;;;;;17.88;15.98;;;;;;;12.61;100.00;100923.91;5272973;28;20040;-78
2022/09/30 09:18:26;;;;;;;16.67;15.18;;;;;;;12.83;100.00;100935.88;5254520;28;20468;-78
2022/09/30 09:21:02;;;;;;;17.50;15.90;;;;;;;12.85;100.00;100936.59;5273754;28;20048;-77
2022/09/30 09:23:34;;;;;;;21.00;15.75;;;;;;;12.99;100.00;100926.56;5274877;28;20107;-78
2022/09/30 09:26:05;;;;;;;15.25;13.85;;;;;;;13.08;100.00;100934.44;5274984;28;20131;-78
2022/09/30 09:28:49;;;;;;;15.75;14.35;;;;;;;13.41;100.00;100924.38;5273514;28;20490;-77
2022/09/30 09:31:20;;;;;;;;;;;;;;;13.79;100.00;100938.28;5257107;28;20049;-79
2022/09/30 09:33:58;;;;;;;15.30;12.77;;;;;;;13.66;100.00;100935.16;5271272;28;19963;-79
2022/09/30 09:36:43;;;;;;;12.68;11.55;;;;;;;13.83;100.00;100952.81;5273146;28;20154;-79
2022/09/30 09:39:15;;;;;;;13.55;12.20;;;;;;;14.00;100.00;100946.72;5275340;28;20468;-78
2022/09/30 09:42:06;;;;;;;13.40;11.87;;;;;;;14.11;100.00;100943.84;5275563;28;20028;-79
2022/09/30 09:44:40;;;;;;;12.02;10.85;;;;;;;14.10;100.00;100933.47;5255676;28;20041;-79
2022/09/30 09:47:16;;;;;;;13.05;11.75;;;;;;;14.16;100.00;100932.03;5276665;28;20070;-79
2022/09/30 09:49:57;;;;;;;12.75;11.43;;;;;;;14.33;100.00;100932.03;5270283;28;20562;-79
2022/09/30 09:53:00;;;;;;;10.48;9.48;;;;;;;14.58;100.00;100926.94;5272891;28;20024;-79
2022/09/30 09:55:31;;;;;;;11.35;10.15;;;;;;;14.50;100.00;100919.81;5273675;28;20028;-80
2022/09/30 09:58:10;;;;;;;11.88;10.65;;;;;;;14.72;100.00;100910.56;5275189;28;20481;-78
2022/09/30 10:03:25;;;;;;;8.90;8.10;;;;;;;15.00;100.00;100931.50;5274318;28;20040;-80
2022/09/30 10:06:02;;;;;;;9.32;8.35;;;;;;;15.10;100.00;100932.22;5274114;28;20085;-78
2022/09/30 10:08:39;;;;;;;9.27;8.30;;;;;;;15.13;100.00;100924.00;5274317;28;20039;-78
2022/09/30 10:11:20;;;;;;;8.25;7.32;;;;;;;15.32;100.00;100929.03;5275208;28;20020;-78
2022/09/30 10:13:58;;;;;;;8.45;7.38;;;;;;;15.39;100.00;100925.75;5276165;28;20062;-78
2022/09/30 10:16:34;;;;;;;8.02;6.93;;;;;;;15.40;100.00;100930.03;5277740;28;20032;-77
2022/09/30 10:19:26;;;;;;;7.55;6.85;;;;;;;15.65;100.00;100931.81;5272729;28;20036;-79
2022/09/30 10:22:19;;;;;;;6.80;6.10;;;;;;;15.85;100.00;100929.72;5277142;28;20020;-79
2022/09/30 10:24:50;;;;;;;8.20;7.30;;;;;;;15.78;100.00;100931.34;5276608;28;20032;-80
2022/09/30 10:27:27;;;;;;;8.27;6.70;;;;;;;15.91;100.00;100938.78;5277363;28;20419;-80
2022/09/30 10:29:58;;;;;;;6.85;6.05;;;;;;;15.98;100.00;100934.50;5275937;28;20028;-80
2022/09/30 10:32:31;;;;;;;6.72;5.78;;;;;;;16.05;100.00;100932.88;5274293;28;20062;-79
2022/09/30 10:35:06;;;;;;;6.25;5.65;;;;;;;16.34;100.00;100931.56;5277239;28;20085;-79
2022/09/30 10:37:37;;;;;;;8.40;5.28;;;;;;;16.30;100.00;100939.00;5274214;28;20520;-77
2022/09/30 10:40:16;;;;;;;6.65;5.53;;;;;;;16.46;100.00;100939.00;5264596;28;20032;-78
2022/09/30 10:42:47;;;;;;;5.45;4.95;;;;;;;16.51;100.00;100933.19;5272905;28;20029;-77
2022/09/30 10:45:23;;;;;;;5.30;4.22;;;;;;;16.63;100.00;100937.19;5274054;28;20055;-78
2022/09/30 10:47:55;;;;;;;5.20;4.60;;;;;;;16.70;100.00;100939.97;5275038;28;20052;-77
2022/09/30 10:50:26;;;;;;;6.28;4.50;;;;;;;16.68;100.00;100934.03;5271602;28;20144;-77
2022/09/30 10:52:59;;;;;;;6.13;4.35;;;;;;;16.90;100.00;100936.00;5275311;28;20100;-77
2022/09/30 10:55:34;;;;;;;4.97;3.53;;;;;;;16.98;100.00;100935.97;5257542;28;20226;-78
2022/09/30 10:58:47;;;;;;;3.47;3.15;;;;;;;17.33;100.00;100935.69;5276417;28;20059;-77
2022/09/30 11:01:31;;;;;;;4.40;2.30;;;;;;;17.10;100.00;100930.31;5277101;28;20435;-78
2022/09/30 11:04:20;;;;;;;3.70;2.60;;;;;;;16.98;100.00;100935.16;5279608;28;20535;-76
2022/09/30 11:07:27;;;;;;;3.50;2.78;;;;;;;16.87;100.00;100925.75;5280047;28;20104;-77
2022/09/30 11:10:13;;;;;;;4.35;2.38;;;;;;;16.91;100.00;100929.72;5251821;28;20465;-77
2022/09/30 11:13:02;;;;;;;3.72;3.35;;;;;;;17.09;100.00;100926.84;5281533;28;20056;-78
2022/09/30 11:15:41;;;;;;;4.13;3.25;;;;;;;17.26;100.00;100923.13;5276595;28;20110;-77
2022/09/30 11:18:33;;;;;;;5.40;3.65;;;;;;;17.40;100.00;100921.59;5279489;28;20036;-78
2022/09/30 11:21:23;;;;;;;3.15;2.70;;;;;;;17.52;100.00;100922.03;5280376;28;20057;-78
2022/09/30 11:24:01;;;;;;;5.10;3.28;;;;;;;17.41;100.00;100925.88;5277645;28;20404;-78
2022/09/30 11:26:53;;;;;;;5.55;3.38;;;;;;;17.53;100.00;100926.31;5275912;28;20419;-78
2022/09/30 11:29:52;;;;;;;4.25;3.22;;;;;;;17.61;100.00;100913.03;5278900;28;20035;-77
2022/09/30 11:32:33;;;;;;;4.05;2.85;;;;;;;17.63;100.00;100916.34;5275711;28;20028;-78
2022/09/30 11:35:13;;;;;;;4.72;3.13;;;;;;;17.77;100.00;100901.56;5278019;28;20476;-78
2022/09/30 11:37:56;;;;;;;5.57;2.90;;;;;;;18.09;100.00;100903.13;5277443;28;20385;-78
2022/09/30 11:40:27;;;;;;;;;;;;;;;18.62;100.00;100904.00;5252399;28;20092;-78
2022/09/30 11:43:07;;;;;;;5.17;3.00;;;;;;;18.34;100.00;100909.06;5279409;28;19912;-78
2022/09/30 11:45:55;;;;;;;3.72;2.33;;;;;;;18.46;100.00;100901.50;5279695;28;20063;-78
2022/09/30 11:48:41;;;;;;;5.88;2.33;;;;;;;18.45;100.00;100887.41;5282013;28;20099;-78
2022/09/30 11:51:18;;;;;;;4.10;2.50;;;;;;;18.62;100.00;100896.03;5281444;28;20094;-77
2022/09/30 11:53:57;;;;;;;4.55;3.13;;;;;;;18.58;100.00;100893.91;5279944;28;20534;-78
2022/09/30 11:56:52;;;;;;;3.47;2.70;;;;;;;18.77;100.00;100888.09;5277450;28;20027;-78
2022/09/30 11:59:44;;;;;;;4.22;2.50;;;;;;;18.95;100.00;100893.06;5277621;28;20510;-78
2022/09/30 12:02:39;;;;;;;4.05;2.22;;;;;;;18.93;100.00;100887.09;5280518;28;20024;-78
2022/09/30 12:05:17;;;;;;;3.83;2.28;;;;;;;18.87;100.00;100882.53;5276440;28;20091;-77